sensor_id;sensor_type;location;lat;lon;timestamp;temperature;humidity
10451;DHT22;5273;51.290;6.918;2022-10-31T00:02:03;15.90;95.80
10451;DHT22;5273;51.290;6.918;2022-10-31T00:04:30;15.80;95.90
10451;DHT22;5273;51.290;6.918;2022-10-31T00:06:57;15.80;95.80
10451;DHT22;5273;51.290;6.918;2022-10-31T00:09:24;15.80;96.00
10451;DHT22;5273;51.290;6.918;2022-10-31T00:11:50;15.80;96.30
10451;DHT22;5273;51.290;6.918;2022-10-31T00:14:17;15.80;96.10
10451;DHT22;5273;51.290;6.918;2022-10-31T00:16:45;15.80;96.30
10451;DHT22;5273;51.290;6.918;2022-10-31T00:19:12;15.80;96.50
10451;DHT22;5273;51.290;6.918;2022-10-31T00:21:39;15.70;96.30
10451;DHT22;5273;51.290;6.918;2022-10-31T00:24:07;15.80;96.50
10451;DHT22;5273;51.290;6.918;2022-10-31T00:26:34;15.80;96.80
10451;DHT22;5273;51.290;6.918;2022-10-31T00:29:00;15.80;96.60
10451;DHT22;5273;51.290;6.918;2022-10-31T00:31:27;16.30;97.00
10451;DHT22;5273;51.290;6.918;2022-10-31T00:33:56;15.80;96.90
10451;DHT22;5273;51.290;6.918;2022-10-31T00:36:23;15.80;96.90
10451;DHT22;5273;51.290;6.918;2022-10-31T00:38:50;15.80;97.00
10451;DHT22;5273;51.290;6.918;2022-10-31T00:41:17;15.80;97.10
10451;DHT22;5273;51.290;6.918;2022-10-31T00:43:44;15.90;97.10
10451;DHT22;5273;51.290;6.918;2022-10-31T00:46:12;15.90;97.10
10451;DHT22;5273;51.290;6.918;2022-10-31T00:48:39;15.90;97.20
10451;DHT22;5273;51.290;6.918;2022-10-31T00:51:07;15.90;97.40
10451;DHT22;5273;51.290;6.918;2022-10-31T00:53:34;15.90;97.60
10451;DHT22;5273;51.290;6.918;2022-10-31T00:56:02;15.90;97.60
10451;DHT22;5273;51.290;6.918;2022-10-31T00:58:29;15.90;97.30
10451;DHT22;5273;51.290;6.918;2022-10-31T01:00:55;15.80;97.30
10451;DHT22;5273;51.290;6.918;2022-10-31T01:03:23;15.80;97.20
10451;DHT22;5273;51.290;6.918;2022-10-31T01:06:02;15.80;97.40
10451;DHT22;5273;51.290;6.918;2022-10-31T01:08:31;15.70;97.60
10451;DHT22;5273;51.290;6.918;2022-10-31T01:11:02;15.80;97.40
10451;DHT22;5273;51.290;6.918;2022-10-31T01:13:29;15.80;97.70
10451;DHT22;5273;51.290;6.918;2022-10-31T01:15:57;15.80;97.70
10451;DHT22;5273;51.290;6.918;2022-10-31T01:18:24;15.80;97.70
10451;DHT22;5273;51.290;6.918;2022-10-31T01:20:58;15.80;97.80
10451;DHT22;5273;51.290;6.918;2022-10-31T01:23:26;15.80;97.90
10451;DHT22;5273;51.290;6.918;2022-10-31T01:26:01;15.70;97.90
10451;DHT22;5273;51.290;6.918;2022-10-31T01:28:27;15.60;98.30
10451;DHT22;5273;51.290;6.918;2022-10-31T01:30:54;15.50;98.60
10451;DHT22;5273;51.290;6.918;2022-10-31T01:33:21;15.50;98.70
10451;DHT22;5273;51.290;6.918;2022-10-31T01:35:48;15.40;99.00
10451;DHT22;5273;51.290;6.918;2022-10-31T01:38:15;15.40;98.90
10451;DHT22;5273;51.290;6.918;2022-10-31T01:40:41;15.40;99.20
10451;DHT22;5273;51.290;6.918;2022-10-31T01:43:12;15.30;99.70
10451;DHT22;5273;51.290;6.918;2022-10-31T01:45:40;15.20;99.50
10451;DHT22;5273;51.290;6.918;2022-10-31T01:48:12;15.30;99.50
10451;DHT22;5273;51.290;6.918;2022-10-31T01:50:41;15.30;99.70
10451;DHT22;5273;51.290;6.918;2022-10-31T01:53:10;15.20;99.90
10451;DHT22;5273;51.290;6.918;2022-10-31T01:55:40;15.10;99.90
10451;DHT22;5273;51.290;6.918;2022-10-31T01:58:11;15.10;99.90
10451;DHT22;5273;51.290;6.918;2022-10-31T02:00:40;15.00;99.90
10451;DHT22;5273;51.290;6.918;2022-10-31T02:03:07;15.00;99.90
10451;DHT22;5273;51.290;6.918;2022-10-31T02:05:34;15.00;99.90
10451;DHT22;5273;51.290;6.918;2022-10-31T02:08:05;14.90;99.90
10451;DHT22;5273;51.290;6.918;2022-10-31T02:10:36;15.00;99.90
10451;DHT22;5273;51.290;6.918;2022-10-31T02:13:05;14.80;99.90
10451;DHT22;5273;51.290;6.918;2022-10-31T02:15:35;14.80;99.90
10451;DHT22;5273;51.290;6.918;2022-10-31T02:18:04;14.80;99.90
10451;DHT22;5273;51.290;6.918;2022-10-31T02:20:37;14.80;99.90
10451;DHT22;5273;51.290;6.918;2022-10-31T02:23:20;14.80;99.90
10451;DHT22;5273;51.290;6.918;2022-10-31T02:26:09;14.80;99.90
10451;DHT22;5273;51.290;6.918;2022-10-31T02:28:54;14.70;99.90
10451;DHT22;5273;51.290;6.918;2022-10-31T02:31:32;14.70;99.90
10451;DHT22;5273;51.290;6.918;2022-10-31T02:34:05;14.60;99.90
10451;DHT22;5273;51.290;6.918;2022-10-31T02:36:41;14.70;99.90
10451;DHT22;5273;51.290;6.918;2022-10-31T02:39:12;14.60;99.90
10451;DHT22;5273;51.290;6.918;2022-10-31T02:41:48;14.60;99.90
10451;DHT22;5273;51.290;6.918;2022-10-31T02:44:20;14.60;99.90
10451;DHT22;5273;51.290;6.918;2022-10-31T02:46:54;14.60;99.90
10451;DHT22;5273;51.290;6.918;2022-10-31T02:49:27;14.70;99.90
10451;DHT22;5273;51.290;6.918;2022-10-31T02:51:55;14.30;99.90
10451;DHT22;5273;51.290;6.918;2022-10-31T02:54:23;14.80;99.90
10451;DHT22;5273;51.290;6.918;2022-10-31T02:56:54;14.70;99.90
10451;DHT22;5273;51.290;6.918;2022-10-31T02:59:23;14.80;99.90
10451;DHT22;5273;51.290;6.918;2022-10-31T03:02:15;14.80;99.90
10451;DHT22;5273;51.290;6.918;2022-10-31T03:04:53;14.80;99.90
10451;DHT22;5273;51.290;6.918;2022-10-31T03:07:28;14.70;99.90
10451;DHT22;5273;51.290;6.918;2022-10-31T03:10:03;14.70;99.90
10451;DHT22;5273;51.290;6.918;2022-10-31T03:12:37;14.60;99.90
10451;DHT22;5273;51.290;6.918;2022-10-31T03:15:12;14.50;99.90
10451;DHT22;5273;51.290;6.918;2022-10-31T03:17:48;14.60;99.90
10451;DHT22;5273;51.290;6.918;2022-10-31T03:20:19;14.60;99.90
10451;DHT22;5273;51.290;6.918;2022-10-31T03:22:47;14.60;99.90
10451;DHT22;5273;51.290;6.918;2022-10-31T03:25:15;14.70;99.90
10451;DHT22;5273;51.290;6.918;2022-10-31T03:27:43;14.50;99.90
10451;DHT22;5273;51.290;6.918;2022-10-31T03:30:11;14.50;99.90
10451;DHT22;5273;51.290;6.918;2022-10-31T03:32:43;14.50;99.90
10451;DHT22;5273;51.290;6.918;2022-10-31T03:35:13;14.50;99.90
10451;DHT22;5273;51.290;6.918;2022-10-31T03:37:40;14.50;99.90
10451;DHT22;5273;51.290;6.918;2022-10-31T03:40:10;14.50;99.90
10451;DHT22;5273;51.290;6.918;2022-10-31T03:42:41;14.50;99.90
10451;DHT22;5273;51.290;6.918;2022-10-31T03:45:13;14.40;99.90
10451;DHT22;5273;51.290;6.918;2022-10-31T03:47:43;14.30;99.90
10451;DHT22;5273;51.290;6.918;2022-10-31T03:50:11;14.30;99.90
10451;DHT22;5273;51.290;6.918;2022-10-31T03:52:43;14.20;99.90
10451;DHT22;5273;51.290;6.918;2022-10-31T03:55:17;14.10;99.90
10451;DHT22;5273;51.290;6.918;2022-10-31T03:57:48;14.10;99.90
10451;DHT22;5273;51.290;6.918;2022-10-31T04:00:18;14.10;99.90
10451;DHT22;5273;51.290;6.918;2022-10-31T04:02:50;14.00;99.90
10451;DHT22;5273;51.290;6.918;2022-10-31T04:05:19;14.00;99.90
10451;DHT22;5273;51.290;6.918;2022-10-31T04:07:50;13.90;99.90
10451;DHT22;5273;51.290;6.918;2022-10-31T04:10:18;13.90;99.90
10451;DHT22;5273;51.290;6.918;2022-10-31T04:12:51;13.90;99.90
10451;DHT22;5273;51.290;6.918;2022-10-31T04:15:20;13.80;99.90
10451;DHT22;5273;51.290;6.918;2022-10-31T04:17:50;13.80;99.90
10451;DHT22;5273;51.290;6.918;2022-10-31T04:20:29;13.80;99.90
10451;DHT22;5273;51.290;6.918;2022-10-31T04:22:56;13.80;99.90
10451;DHT22;5273;51.290;6.918;2022-10-31T04:25:23;13.80;99.90
10451;DHT22;5273;51.290;6.918;2022-10-31T04:27:49;13.80;99.90
10451;DHT22;5273;51.290;6.918;2022-10-31T04:30:16;13.70;99.90
10451;DHT22;5273;51.290;6.918;2022-10-31T04:32:43;13.70;99.90
10451;DHT22;5273;51.290;6.918;2022-10-31T04:35:11;13.70;99.90
10451;DHT22;5273;51.290;6.918;2022-10-31T04:37:38;13.70;99.90
10451;DHT22;5273;51.290;6.918;2022-10-31T04:40:05;13.60;99.90
10451;DHT22;5273;51.290;6.918;2022-10-31T04:42:32;13.70;99.90
10451;DHT22;5273;51.290;6.918;2022-10-31T04:44:59;13.60;99.90
10451;DHT22;5273;51.290;6.918;2022-10-31T04:47:26;13.60;99.90
10451;DHT22;5273;51.290;6.918;2022-10-31T04:49:52;13.60;99.90
10451;DHT22;5273;51.290;6.918;2022-10-31T04:52:20;13.70;99.90
10451;DHT22;5273;51.290;6.918;2022-10-31T04:54:47;13.60;99.90
10451;DHT22;5273;51.290;6.918;2022-10-31T04:57:14;13.60;99.90
10451;DHT22;5273;51.290;6.918;2022-10-31T04:59:41;13.60;99.90
10451;DHT22;5273;51.290;6.918;2022-10-31T05:02:07;13.60;99.90
10451;DHT22;5273;51.290;6.918;2022-10-31T05:04:34;13.60;99.90
10451;DHT22;5273;51.290;6.918;2022-10-31T05:07:01;13.50;99.90
10451;DHT22;5273;51.290;6.918;2022-10-31T05:09:29;13.40;99.90
10451;DHT22;5273;51.290;6.918;2022-10-31T05:11:56;13.50;99.90
10451;DHT22;5273;51.290;6.918;2022-10-31T05:14:22;13.50;99.90
10451;DHT22;5273;51.290;6.918;2022-10-31T05:16:49;13.50;99.90
10451;DHT22;5273;51.290;6.918;2022-10-31T05:19:16;13.40;99.90
10451;DHT22;5273;51.290;6.918;2022-10-31T05:21:43;13.40;99.90
10451;DHT22;5273;51.290;6.918;2022-10-31T05:24:09;13.30;99.90
10451;DHT22;5273;51.290;6.918;2022-10-31T05:26:37;13.50;99.90
10451;DHT22;5273;51.290;6.918;2022-10-31T05:29:04;13.50;99.90
10451;DHT22;5273;51.290;6.918;2022-10-31T05:31:31;13.50;99.90
10451;DHT22;5273;51.290;6.918;2022-10-31T05:33:58;13.50;99.90
10451;DHT22;5273;51.290;6.918;2022-10-31T05:36:25;13.50;99.90
10451;DHT22;5273;51.290;6.918;2022-10-31T05:38:52;13.50;99.90
10451;DHT22;5273;51.290;6.918;2022-10-31T05:41:18;13.50;99.90
10451;DHT22;5273;51.290;6.918;2022-10-31T05:43:46;13.50;99.90
10451;DHT22;5273;51.290;6.918;2022-10-31T05:46:13;13.50;99.90
10451;DHT22;5273;51.290;6.918;2022-10-31T05:48:40;13.50;99.90
10451;DHT22;5273;51.290;6.918;2022-10-31T05:51:07;13.50;99.90
10451;DHT22;5273;51.290;6.918;2022-10-31T05:53:33;13.60;99.90
10451;DHT22;5273;51.290;6.918;2022-10-31T05:56:00;13.60;99.90
10451;DHT22;5273;51.290;6.918;2022-10-31T05:58:27;13.60;99.90
10451;DHT22;5273;51.290;6.918;2022-10-31T06:00:55;13.60;99.90
10451;DHT22;5273;51.290;6.918;2022-10-31T06:03:22;13.60;99.90
10451;DHT22;5273;51.290;6.918;2022-10-31T06:05:49;13.90;99.90
10451;DHT22;5273;51.290;6.918;2022-10-31T06:08:15;13.60;99.90
10451;DHT22;5273;51.290;6.918;2022-10-31T06:10:42;13.60;99.90
10451;DHT22;5273;51.290;6.918;2022-10-31T06:13:09;13.60;99.90
10451;DHT22;5273;51.290;6.918;2022-10-31T06:15:36;13.70;99.90
10451;DHT22;5273;51.290;6.918;2022-10-31T06:18:05;13.60;99.90
10451;DHT22;5273;51.290;6.918;2022-10-31T06:20:32;13.60;99.90
10451;DHT22;5273;51.290;6.918;2022-10-31T06:22:59;13.60;99.90
10451;DHT22;5273;51.290;6.918;2022-10-31T06:25:26;13.60;99.90
10451;DHT22;5273;51.290;6.918;2022-10-31T06:27:53;13.50;99.90
10451;DHT22;5273;51.290;6.918;2022-10-31T06:30:20;13.50;99.90
10451;DHT22;5273;51.290;6.918;2022-10-31T06:32:47;13.50;99.90
10451;DHT22;5273;51.290;6.918;2022-10-31T06:35:16;13.50;99.90
10451;DHT22;5273;51.290;6.918;2022-10-31T06:37:50;13.40;99.90
10451;DHT22;5273;51.290;6.918;2022-10-31T06:40:17;13.40;99.90
10451;DHT22;5273;51.290;6.918;2022-10-31T06:42:44;13.40;99.90
10451;DHT22;5273;51.290;6.918;2022-10-31T06:45:11;13.40;99.90
10451;DHT22;5273;51.290;6.918;2022-10-31T06:47:37;13.50;99.90
10451;DHT22;5273;51.290;6.918;2022-10-31T06:50:05;13.60;99.90
10451;DHT22;5273;51.290;6.918;2022-10-31T06:52:33;13.50;99.90
10451;DHT22;5273;51.290;6.918;2022-10-31T06:55:00;13.60;99.90
10451;DHT22;5273;51.290;6.918;2022-10-31T06:57:27;13.60;99.90
10451;DHT22;5273;51.290;6.918;2022-10-31T06:59:54;13.60;99.90
10451;DHT22;5273;51.290;6.918;2022-10-31T07:02:20;13.60;99.90
10451;DHT22;5273;51.290;6.918;2022-10-31T07:04:47;13.70;99.90
10451;DHT22;5273;51.290;6.918;2022-10-31T07:07:14;13.90;99.90
10451;DHT22;5273;51.290;6.918;2022-10-31T07:09:42;13.90;99.90
10451;DHT22;5273;51.290;6.918;2022-10-31T07:12:09;14.40;99.90
10451;DHT22;5273;51.290;6.918;2022-10-31T07:14:35;14.10;99.90
10451;DHT22;5273;51.290;6.918;2022-10-31T07:17:02;14.00;99.90
10451;DHT22;5273;51.290;6.918;2022-10-31T07:19:29;14.00;99.90
10451;DHT22;5273;51.290;6.918;2022-10-31T07:21:57;14.00;99.90
10451;DHT22;5273;51.290;6.918;2022-10-31T07:24:23;14.20;99.90
10451;DHT22;5273;51.290;6.918;2022-10-31T07:26:51;14.30;99.90
10451;DHT22;5273;51.290;6.918;2022-10-31T07:29:18;14.30;99.90
10451;DHT22;5273;51.290;6.918;2022-10-31T07:31:46;14.40;99.90
10451;DHT22;5273;51.290;6.918;2022-10-31T07:34:12;14.40;99.90
10451;DHT22;5273;51.290;6.918;2022-10-31T07:36:39;14.40;99.90
10451;DHT22;5273;51.290;6.918;2022-10-31T07:39:06;14.40;99.90
10451;DHT22;5273;51.290;6.918;2022-10-31T07:41:33;14.40;99.90
10451;DHT22;5273;51.290;6.918;2022-10-31T07:44:01;14.40;99.90
10451;DHT22;5273;51.290;6.918;2022-10-31T07:46:28;14.40;99.90
10451;DHT22;5273;51.290;6.918;2022-10-31T07:48:54;14.50;99.90
10451;DHT22;5273;51.290;6.918;2022-10-31T07:51:21;14.50;99.90
10451;DHT22;5273;51.290;6.918;2022-10-31T07:53:49;14.50;99.90
10451;DHT22;5273;51.290;6.918;2022-10-31T07:56:16;14.70;99.90
10451;DHT22;5273;51.290;6.918;2022-10-31T07:58:43;15.00;99.90
10451;DHT22;5273;51.290;6.918;2022-10-31T08:01:11;15.10;99.90
10451;DHT22;5273;51.290;6.918;2022-10-31T08:03:38;15.20;99.90
10451;DHT22;5273;51.290;6.918;2022-10-31T08:06:06;15.40;99.90
10451;DHT22;5273;51.290;6.918;2022-10-31T08:08:33;15.60;99.90
10451;DHT22;5273;51.290;6.918;2022-10-31T08:10:59;15.80;99.90
10451;DHT22;5273;51.290;6.918;2022-10-31T08:13:26;16.10;99.90
10451;DHT22;5273;51.290;6.918;2022-10-31T08:15:53;16.30;99.90
10451;DHT22;5273;51.290;6.918;2022-10-31T08:18:22;16.60;99.90
10451;DHT22;5273;51.290;6.918;2022-10-31T08:20:49;16.80;99.90
10451;DHT22;5273;51.290;6.918;2022-10-31T08:23:16;17.00;99.90
10451;DHT22;5273;51.290;6.918;2022-10-31T08:25:43;17.30;99.90
10451;DHT22;5273;51.290;6.918;2022-10-31T08:28:12;17.40;99.90
10451;DHT22;5273;51.290;6.918;2022-10-31T08:30:39;17.70;99.90
10451;DHT22;5273;51.290;6.918;2022-10-31T08:33:09;18.00;99.30
10451;DHT22;5273;51.290;6.918;2022-10-31T08:35:37;18.40;99.60
10451;DHT22;5273;51.290;6.918;2022-10-31T08:38:05;18.90;98.50
10451;DHT22;5273;51.290;6.918;2022-10-31T08:40:33;19.30;97.40
10451;DHT22;5273;51.290;6.918;2022-10-31T08:43:05;19.70;97.00
10451;DHT22;5273;51.290;6.918;2022-10-31T08:45:33;20.20;95.70
10451;DHT22;5273;51.290;6.918;2022-10-31T08:48:02;20.70;94.90
10451;DHT22;5273;51.290;6.918;2022-10-31T08:50:31;21.20;93.80
10451;DHT22;5273;51.290;6.918;2022-10-31T08:53:03;21.60;92.90
10451;DHT22;5273;51.290;6.918;2022-10-31T08:55:30;21.90;92.40
10451;DHT22;5273;51.290;6.918;2022-10-31T08:57:57;22.10;90.90
10451;DHT22;5273;51.290;6.918;2022-10-31T09:00:24;22.20;90.70
10451;DHT22;5273;51.290;6.918;2022-10-31T09:02:56;22.10;90.10
10451;DHT22;5273;51.290;6.918;2022-10-31T09:05:23;22.00;90.20
10451;DHT22;5273;51.290;6.918;2022-10-31T09:07:50;21.90;90.70
10451;DHT22;5273;51.290;6.918;2022-10-31T09:10:18;22.10;90.70
10451;DHT22;5273;51.290;6.918;2022-10-31T09:12:45;22.00;90.40
10451;DHT22;5273;51.290;6.918;2022-10-31T09:15:12;21.90;90.50
10451;DHT22;5273;51.290;6.918;2022-10-31T09:17:38;21.70;90.80
10451;DHT22;5273;51.290;6.918;2022-10-31T09:20:06;21.70;90.90
10451;DHT22;5273;51.290;6.918;2022-10-31T09:22:33;21.60;90.40
10451;DHT22;5273;51.290;6.918;2022-10-31T09:24:59;21.50;90.90
10451;DHT22;5273;51.290;6.918;2022-10-31T09:27:28;21.50;90.90
10451;DHT22;5273;51.290;6.918;2022-10-31T09:29:54;21.40;91.20
10451;DHT22;5273;51.290;6.918;2022-10-31T09:32:21;21.30;91.10
10451;DHT22;5273;51.290;6.918;2022-10-31T09:34:48;21.10;91.40
10451;DHT22;5273;51.290;6.918;2022-10-31T09:37:15;20.90;92.00
10451;DHT22;5273;51.290;6.918;2022-10-31T09:39:41;20.60;92.00
10451;DHT22;5273;51.290;6.918;2022-10-31T09:45:06;20.10;93.00
10451;DHT22;5273;51.290;6.918;2022-10-31T09:47:43;19.90;93.90
10451;DHT22;5273;51.290;6.918;2022-10-31T09:50:18;19.70;94.30
10451;DHT22;5273;51.290;6.918;2022-10-31T09:52:54;19.80;94.70
10451;DHT22;5273;51.290;6.918;2022-10-31T09:55:27;20.00;94.60
10451;DHT22;5273;51.290;6.918;2022-10-31T09:57:55;20.50;93.40
10451;DHT22;5273;51.290;6.918;2022-10-31T10:00:23;20.90;93.50
10451;DHT22;5273;51.290;6.918;2022-10-31T10:02:56;21.20;93.40
10451;DHT22;5273;51.290;6.918;2022-10-31T10:05:28;21.40;93.00
10451;DHT22;5273;51.290;6.918;2022-10-31T10:08:03;21.60;92.10
10451;DHT22;5273;51.290;6.918;2022-10-31T10:10:43;21.90;91.70
10451;DHT22;5273;51.290;6.918;2022-10-31T10:16:18;22.30;90.90
10451;DHT22;5273;51.290;6.918;2022-10-31T10:18:56;22.90;90.90
10451;DHT22;5273;51.290;6.918;2022-10-31T10:21:36;23.20;90.10
10451;DHT22;5273;51.290;6.918;2022-10-31T10:24:21;23.80;88.00
10451;DHT22;5273;51.290;6.918;2022-10-31T10:26:56;24.50;86.60
10451;DHT22;5273;51.290;6.918;2022-10-31T10:29:31;25.10;82.80
10451;DHT22;5273;51.290;6.918;2022-10-31T10:32:06;25.50;81.30
10451;DHT22;5273;51.290;6.918;2022-10-31T10:34:41;25.20;80.30
10451;DHT22;5273;51.290;6.918;2022-10-31T10:37:19;24.50;81.90
10451;DHT22;5273;51.290;6.918;2022-10-31T10:39:51;24.00;84.70
10451;DHT22;5273;51.290;6.918;2022-10-31T10:42:17;23.60;85.70
10451;DHT22;5273;51.290;6.918;2022-10-31T10:45:14;23.20;87.00
10451;DHT22;5273;51.290;6.918;2022-10-31T10:48:07;22.70;87.50
10451;DHT22;5273;51.290;6.918;2022-10-31T10:50:40;22.10;88.40
10451;DHT22;5273;51.290;6.918;2022-10-31T10:53:16;21.70;90.60
10451;DHT22;5273;51.290;6.918;2022-10-31T10:55:52;21.40;91.80
10451;DHT22;5273;51.290;6.918;2022-10-31T10:58:21;21.20;91.60
10451;DHT22;5273;51.290;6.918;2022-10-31T11:00:55;21.10;92.50
10451;DHT22;5273;51.290;6.918;2022-10-31T11:03:23;21.00;92.20
10451;DHT22;5273;51.290;6.918;2022-10-31T11:05:52;20.70;91.80
10451;DHT22;5273;51.290;6.918;2022-10-31T11:08:25;20.50;91.80
10451;DHT22;5273;51.290;6.918;2022-10-31T11:10:59;20.20;92.30
10451;DHT22;5273;51.290;6.918;2022-10-31T11:13:27;20.10;93.10
10451;DHT22;5273;51.290;6.918;2022-10-31T11:15:58;20.10;93.10
10451;DHT22;5273;51.290;6.918;2022-10-31T11:18:29;20.10;93.30
10451;DHT22;5273;51.290;6.918;2022-10-31T11:20:57;20.20;93.10
10451;DHT22;5273;51.290;6.918;2022-10-31T11:23:26;20.20;92.60
10451;DHT22;5273;51.290;6.918;2022-10-31T11:25:55;20.20;92.40
10451;DHT22;5273;51.290;6.918;2022-10-31T11:28:23;20.10;92.70
10451;DHT22;5273;51.290;6.918;2022-10-31T11:30:52;20.10;92.10
10451;DHT22;5273;51.290;6.918;2022-10-31T11:33:29;20.20;92.70
10451;DHT22;5273;51.290;6.918;2022-10-31T11:35:57;20.20;92.40
10451;DHT22;5273;51.290;6.918;2022-10-31T11:38:28;20.20;91.90
10451;DHT22;5273;51.290;6.918;2022-10-31T11:41:00;20.20;92.60
10451;DHT22;5273;51.290;6.918;2022-10-31T11:43:27;20.30;92.60
10451;DHT22;5273;51.290;6.918;2022-10-31T11:45:54;20.40;92.90
10451;DHT22;5273;51.290;6.918;2022-10-31T11:48:22;20.50;92.40
10451;DHT22;5273;51.290;6.918;2022-10-31T11:50:54;20.60;92.80
10451;DHT22;5273;51.290;6.918;2022-10-31T11:53:26;20.70;92.00
10451;DHT22;5273;51.290;6.918;2022-10-31T11:56:05;20.80;91.20
10451;DHT22;5273;51.290;6.918;2022-10-31T11:58:32;20.80;91.10
10451;DHT22;5273;51.290;6.918;2022-10-31T12:00:59;20.70;90.80
10451;DHT22;5273;51.290;6.918;2022-10-31T12:03:38;20.70;90.50
10451;DHT22;5273;51.290;6.918;2022-10-31T12:06:12;20.70;90.80
10451;DHT22;5273;51.290;6.918;2022-10-31T12:08:40;20.70;90.90
10451;DHT22;5273;51.290;6.918;2022-10-31T12:11:16;20.70;91.30
10451;DHT22;5273;51.290;6.918;2022-10-31T12:13:52;20.80;91.40
10451;DHT22;5273;51.290;6.918;2022-10-31T12:16:28;20.80;91.10
10451;DHT22;5273;51.290;6.918;2022-10-31T12:19:02;20.70;90.60
10451;DHT22;5273;51.290;6.918;2022-10-31T12:22:02;20.70;90.90
10451;DHT22;5273;51.290;6.918;2022-10-31T12:24:39;20.70;90.60
10451;DHT22;5273;51.290;6.918;2022-10-31T12:27:21;20.70;91.20
10451;DHT22;5273;51.290;6.918;2022-10-31T12:30:09;20.70;91.30
10451;DHT22;5273;51.290;6.918;2022-10-31T12:32:49;20.80;90.50
10451;DHT22;5273;51.290;6.918;2022-10-31T12:35:34;20.60;89.80
10451;DHT22;5273;51.290;6.918;2022-10-31T12:41:23;20.80;90.00
10451;DHT22;5273;51.290;6.918;2022-10-31T12:44:03;20.80;89.90
10451;DHT22;5273;51.290;6.918;2022-10-31T12:46:44;20.70;89.00
10451;DHT22;5273;51.290;6.918;2022-10-31T12:49:42;20.70;89.10
10451;DHT22;5273;51.290;6.918;2022-10-31T12:52:23;20.60;87.90
10451;DHT22;5273;51.290;6.918;2022-10-31T12:55:05;20.50;89.00
10451;DHT22;5273;51.290;6.918;2022-10-31T12:57:37;20.50;89.00
10451;DHT22;5273;51.290;6.918;2022-10-31T13:00:11;20.50;89.00
10451;DHT22;5273;51.290;6.918;2022-10-31T13:02:44;20.60;89.40
10451;DHT22;5273;51.290;6.918;2022-10-31T13:05:17;20.50;88.70
10451;DHT22;5273;51.290;6.918;2022-10-31T13:07:47;20.50;90.30
10451;DHT22;5273;51.290;6.918;2022-10-31T13:10:20;20.50;90.40
10451;DHT22;5273;51.290;6.918;2022-10-31T13:12:51;20.40;90.10
10451;DHT22;5273;51.290;6.918;2022-10-31T13:15:21;20.40;90.10
10451;DHT22;5273;51.290;6.918;2022-10-31T13:17:51;20.40;90.40
10451;DHT22;5273;51.290;6.918;2022-10-31T13:20:25;20.40;90.80
10451;DHT22;5273;51.290;6.918;2022-10-31T13:22:56;20.50;90.40
10451;DHT22;5273;51.290;6.918;2022-10-31T13:25:30;20.40;88.90
10451;DHT22;5273;51.290;6.918;2022-10-31T13:28:00;20.40;88.90
10451;DHT22;5273;51.290;6.918;2022-10-31T13:30:31;20.30;88.10
10451;DHT22;5273;51.290;6.918;2022-10-31T13:33:00;20.30;88.80
10451;DHT22;5273;51.290;6.918;2022-10-31T13:35:33;20.30;88.80
10451;DHT22;5273;51.290;6.918;2022-10-31T13:38:11;20.40;89.70
10451;DHT22;5273;51.290;6.918;2022-10-31T13:40:47;20.30;89.30
10451;DHT22;5273;51.290;6.918;2022-10-31T13:43:27;20.30;89.10
10451;DHT22;5273;51.290;6.918;2022-10-31T13:45:55;20.30;90.50
10451;DHT22;5273;51.290;6.918;2022-10-31T13:48:39;20.30;90.20
10451;DHT22;5273;51.290;6.918;2022-10-31T13:51:09;20.30;88.80
10451;DHT22;5273;51.290;6.918;2022-10-31T13:53:39;20.30;88.90
10451;DHT22;5273;51.290;6.918;2022-10-31T13:56:15;20.20;88.30
10451;DHT22;5273;51.290;6.918;2022-10-31T13:59:04;20.30;90.00
10451;DHT22;5273;51.290;6.918;2022-10-31T14:01:32;20.30;89.70
10451;DHT22;5273;51.290;6.918;2022-10-31T14:04:03;20.20;88.20
10451;DHT22;5273;51.290;6.918;2022-10-31T14:06:40;20.10;89.30
10451;DHT22;5273;51.290;6.918;2022-10-31T14:09:19;20.00;89.80
10451;DHT22;5273;51.290;6.918;2022-10-31T14:11:49;20.10;89.50
10451;DHT22;5273;51.290;6.918;2022-10-31T14:14:17;20.00;89.00
10451;DHT22;5273;51.290;6.918;2022-10-31T14:16:45;19.90;88.90
10451;DHT22;5273;51.290;6.918;2022-10-31T14:19:18;20.10;88.60
10451;DHT22;5273;51.290;6.918;2022-10-31T14:21:47;19.90;89.20
10451;DHT22;5273;51.290;6.918;2022-10-31T14:24:15;19.80;89.50
10451;DHT22;5273;51.290;6.918;2022-10-31T14:26:53;19.80;89.40
10451;DHT22;5273;51.290;6.918;2022-10-31T14:29:24;19.60;89.60
10451;DHT22;5273;51.290;6.918;2022-10-31T14:31:54;19.60;90.40
10451;DHT22;5273;51.290;6.918;2022-10-31T14:34:23;19.70;90.40
10451;DHT22;5273;51.290;6.918;2022-10-31T14:37:31;19.70;89.70
10451;DHT22;5273;51.290;6.918;2022-10-31T14:40:17;19.60;90.20
10451;DHT22;5273;51.290;6.918;2022-10-31T14:43:09;19.60;90.00
10451;DHT22;5273;51.290;6.918;2022-10-31T14:45:46;19.60;90.20
10451;DHT22;5273;51.290;6.918;2022-10-31T14:48:29;19.60;89.80
10451;DHT22;5273;51.290;6.918;2022-10-31T14:50:58;19.50;90.10
10451;DHT22;5273;51.290;6.918;2022-10-31T14:53:29;19.50;90.00
10451;DHT22;5273;51.290;6.918;2022-10-31T14:55:57;19.50;90.50
10451;DHT22;5273;51.290;6.918;2022-10-31T14:58:32;19.50;90.00
10451;DHT22;5273;51.290;6.918;2022-10-31T15:00:59;19.50;90.20
10451;DHT22;5273;51.290;6.918;2022-10-31T15:03:31;19.40;89.70
10451;DHT22;5273;51.290;6.918;2022-10-31T15:06:02;19.50;90.50
10451;DHT22;5273;51.290;6.918;2022-10-31T15:08:33;19.40;90.00
10451;DHT22;5273;51.290;6.918;2022-10-31T15:11:08;19.40;90.20
10451;DHT22;5273;51.290;6.918;2022-10-31T15:13:43;19.40;90.00
10451;DHT22;5273;51.290;6.918;2022-10-31T15:16:11;19.30;89.40
10451;DHT22;5273;51.290;6.918;2022-10-31T15:18:46;19.40;89.40
10451;DHT22;5273;51.290;6.918;2022-10-31T15:21:15;19.20;89.80
10451;DHT22;5273;51.290;6.918;2022-10-31T15:23:42;19.30;90.20
10451;DHT22;5273;51.290;6.918;2022-10-31T15:26:15;19.20;89.00
10451;DHT22;5273;51.290;6.918;2022-10-31T15:28:45;19.10;89.40
10451;DHT22;5273;51.290;6.918;2022-10-31T15:31:15;19.20;88.70
10451;DHT22;5273;51.290;6.918;2022-10-31T15:33:44;19.10;89.40
10451;DHT22;5273;51.290;6.918;2022-10-31T15:36:19;19.10;89.40
10451;DHT22;5273;51.290;6.918;2022-10-31T15:38:46;19.00;88.30
10451;DHT22;5273;51.290;6.918;2022-10-31T15:41:24;19.30;88.80
10451;DHT22;5273;51.290;6.918;2022-10-31T15:43:53;19.00;88.70
10451;DHT22;5273;51.290;6.918;2022-10-31T15:46:20;19.00;87.40
10451;DHT22;5273;51.290;6.918;2022-10-31T15:48:48;19.00;87.40
10451;DHT22;5273;51.290;6.918;2022-10-31T15:51:15;19.00;86.80
10451;DHT22;5273;51.290;6.918;2022-10-31T15:53:45;18.90;87.40
10451;DHT22;5273;51.290;6.918;2022-10-31T15:56:20;18.90;86.40
10451;DHT22;5273;51.290;6.918;2022-10-31T15:58:49;18.90;86.50
10451;DHT22;5273;51.290;6.918;2022-10-31T16:01:23;18.80;86.10
10451;DHT22;5273;51.290;6.918;2022-10-31T16:04:02;18.80;86.40
10451;DHT22;5273;51.290;6.918;2022-10-31T16:06:30;18.80;86.40
10451;DHT22;5273;51.290;6.918;2022-10-31T16:08:57;18.70;86.10
10451;DHT22;5273;51.290;6.918;2022-10-31T16:11:27;18.70;87.00
10451;DHT22;5273;51.290;6.918;2022-10-31T16:14:05;18.70;86.50
10451;DHT22;5273;51.290;6.918;2022-10-31T16:16:40;18.70;85.90